Time;durP1;ratioP1;P1;durP2;ratioP2;P2;SDS_P1;SDS_P2;PMS_P1;PMS_P2;Temp;Humidity;BMP_temperature;BMP_pressure;BME280_temperature;BME280_humidity;BME280_pressure;Samples;Min_cycle;Max_cycle;Signal;HPM_P1;HPM_P2
2022/09/10 00:01:28;;;;;;;11.00;9.77;;;14.00;99.90;;;;;;5070966;28;20227;-90
2022/09/10 00:04:17;;;;;;;13.65;9.98;;;14.10;99.90;;;;;;5096458;27;20227;-91
2022/09/10 00:07:07;;;;;;;10.85;8.95;;;14.10;99.90;;;;;;5070085;28;20263;-91
2022/09/10 00:09:56;;;;;;;11.13;9.38;;;14.00;99.90;;;;;;5090443;28;20300;-91
2022/09/10 00:12:47;;;;;;;10.63;8.95;;;14.10;99.90;;;;;;5096727;28;20308;-92
2022/09/10 00:15:39;;;;;;;11.35;9.18;;;14.10;99.90;;;;;;5080841;28;20581;-89
2022/09/10 00:18:28;;;;;;;13.20;9.30;;;14.20;99.90;;;;;;5091505;28;20234;-85
2022/09/10 00:21:19;;;;;;;10.98;8.27;;;14.10;99.90;;;;;;5064253;28;20220;-87
2022/09/10 00:24:10;;;;;;;11.07;9.18;;;14.00;99.90;;;;;;5065742;28;20227;-85
2022/09/10 00:26:58;;;;;;;10.35;9.18;;;13.90;99.90;;;;;;5058167;28;20224;-84
2022/09/10 00:29:50;;;;;;;11.20;9.70;;;13.80;99.90;;;;;;5063090;28;20227;-86
2022/09/10 00:32:39;;;;;;;12.02;9.77;;;13.80;99.90;;;;;;5065000;28;20222;-86
2022/09/10 00:35:32;;;;;;;12.40;9.75;;;13.70;99.90;;;;;;5075957;28;20224;-85
2022/09/10 00:38:21;;;;;;;11.57;9.85;;;13.70;99.90;;;;;;5057471;28;20224;-86
2022/09/10 00:41:11;;;;;;;12.25;9.88;;;13.70;99.90;;;;;;5083930;28;20220;-86
2022/09/10 00:44:02;;;;;;;12.65;10.05;;;13.80;99.90;;;;;;5057648;28;20229;-85
2022/09/10 00:46:52;;;;;;;16.48;11.30;;;13.80;99.90;;;;;;5057599;28;20232;-85
2022/09/10 00:49:44;;;;;;;12.88;10.30;;;13.70;99.90;;;;;;5057152;28;20229;-85
2022/09/10 00:52:33;;;;;;;12.57;10.55;;;13.70;99.90;;;;;;5054313;28;20220;-85
2022/09/10 00:55:28;;;;;;;12.75;10.57;;;13.60;99.90;;;;;;5085588;28;20213;-85
2022/09/10 00:58:19;;;;;;;12.32;9.85;;;13.60;99.90;;;;;;5083688;28;20709;-85
2022/09/10 01:01:08;;;;;;;11.75;9.80;;;13.70;99.90;;;;;;5079373;28;20692;-86
2022/09/10 01:03:57;;;;;;;11.48;9.73;;;13.60;99.90;;;;;;5090068;27;20284;-84
2022/09/10 01:06:50;;;;;;;12.35;9.45;;;13.80;99.90;;;;;;5065179;28;20331;-85
2022/09/10 01:09:40;;;;;;;11.00;9.90;;;13.70;99.90;;;;;;5099540;28;20230;-85
2022/09/10 01:12:41;;;;;;;11.68;10.02;;;13.80;99.90;;;;;;5078011;28;20220;-86
2022/09/10 01:15:39;;;;;;;15.18;10.15;;;13.90;99.90;;;;;;5063232;28;20322;-85
2022/09/10 01:18:40;;;;;;;11.20;9.52;;;13.90;99.90;;;;;;5091651;28;20230;-83
2022/09/10 01:21:33;;;;;;;10.80;9.40;;;13.90;99.90;;;;;;5077825;28;20224;-85
2022/09/10 01:24:39;;;;;;;12.40;9.50;;;13.80;99.90;;;;;;5083959;28;20227;-86
2022/09/10 01:27:40;;;;;;;10.60;9.25;;;13.90;99.90;;;;;;5074307;28;20713;-86
2022/09/10 01:30:34;;;;;;;13.30;9.55;;;13.90;99.90;;;;;;5064235;28;20294;-84
2022/09/10 01:33:30;;;;;;;12.50;9.70;;;14.00;99.90;;;;;;5055735;28;20344;-85
2022/09/10 01:36:24;;;;;;;13.23;10.27;;;13.90;99.90;;;;;;5083365;28;20295;-85
2022/09/10 01:39:13;;;;;;;13.02;10.43;;;13.80;99.90;;;;;;5056119;28;20783;-84
2022/09/10 01:42:02;;;;;;;12.70;10.05;;;13.90;99.90;;;;;;5077341;28;20228;-87
2022/09/10 01:44:57;;;;;;;14.18;9.98;;;13.90;99.90;;;;;;5056695;28;20718;-85
2022/09/10 01:48:21;;;;;;;14.88;10.27;;;13.80;99.90;;;;;;5070035;28;20213;-85
2022/09/10 01:51:21;;;;;;;14.65;10.57;;;13.90;99.90;;;;;;5027348;28;20217;-85
2022/09/10 01:54:23;;;;;;;14.13;9.98;;;13.90;99.90;;;;;;5070088;28;20224;-85
2022/09/10 01:57:26;;;;;;;14.50;10.43;;;13.80;99.90;;;;;;5055182;28;20233;-85
2022/09/10 02:00:21;;;;;;;15.65;10.05;;;13.70;99.90;;;;;;5087660;28;20223;-86
2022/09/10 02:03:17;;;;;;;12.82;9.70;;;13.70;99.90;;;;;;5055138;28;20225;-86
2022/09/10 02:06:11;;;;;;;13.15;9.57;;;13.70;99.90;;;;;;5059329;28;20256;-85
2022/09/10 02:09:01;;;;;;;13.30;9.18;;;13.80;99.90;;;;;;5059913;28;20272;-85
2022/09/10 02:11:53;;;;;;;13.13;9.35;;;13.80;99.90;;;;;;5055686;28;20590;-85
2022/09/10 02:15:10;;;;;;;12.52;9.48;;;13.70;99.90;;;;;;5053394;28;20220;-86
2022/09/10 02:18:12;;;;;;;12.60;8.50;;;13.50;99.90;;;;;;5082229;28;20231;-87
2022/09/10 02:21:02;;;;;;;12.85;8.52;;;13.60;99.90;;;;;;5063635;28;20235;-87
2022/09/10 02:23:55;;;;;;;12.77;8.75;;;13.60;99.90;;;;;;5082859;28;20228;-88
2022/09/10 02:26:46;;;;;;;12.60;9.50;;;13.70;99.90;;;;;;5086578;28;20212;-88
2022/09/10 02:29:34;;;;;;;13.68;9.38;;;13.70;99.90;;;;;;5084866;28;20225;-87
2022/09/10 02:32:24;;;;;;;15.52;9.98;;;13.80;99.90;;;;;;5072930;28;20311;-87
2022/09/10 02:35:14;;;;;;;14.15;9.98;;;13.70;99.90;;;;;;5054040;28;20236;-86
2022/09/10 02:38:07;;;;;;;15.40;10.23;;;13.80;99.90;;;;;;5071984;28;20231;-86
2022/09/10 02:40:58;;;;;;;14.15;9.63;;;13.70;99.90;;;;;;5080678;28;20368;-87
2022/09/10 02:43:46;;;;;;;13.65;10.52;;;13.80;99.90;;;;;;5066715;28;20231;-86
2022/09/10 02:46:35;;;;;;;18.00;11.50;;;13.90;99.90;;;;;;5068588;28;20326;-85
2022/09/10 02:49:24;;;;;;;13.63;10.88;;;13.80;99.90;;;;;;5049427;28;20307;-86
2022/09/10 02:52:14;;;;;;;16.45;10.82;;;13.70;99.90;;;;;;5059613;28;20232;-86
2022/09/10 02:55:03;;;;;;;16.58;11.70;;;13.60;99.90;;;;;;5071796;28;20224;-86
2022/09/10 02:57:52;;;;;;;15.60;11.23;;;13.60;99.90;;;;;;5054519;28;20228;-88
2022/09/10 03:00:41;;;;;;;14.55;11.40;;;13.70;99.90;;;;;;5060281;28;20265;-87
2022/09/10 03:03:32;;;;;;;16.30;11.73;;;13.70;99.90;;;;;;5056735;28;20216;-86
2022/09/10 03:06:21;;;;;;;17.88;12.25;;;13.60;99.90;;;;;;5057591;28;20231;-86
2022/09/10 03:09:12;;;;;;;16.80;11.57;;;13.70;99.90;;;;;;5069940;28;20298;-86
2022/09/10 03:12:01;;;;;;;15.98;11.65;;;13.80;99.90;;;;;;5061048;28;20573;-86
2022/09/10 03:14:53;;;;;;;15.05;10.70;;;13.70;99.90;;;;;;5082927;28;20376;-86
2022/09/10 03:17:43;;;;;;;15.27;11.00;;;13.60;99.90;;;;;;5058179;28;20308;-85
2022/09/10 03:20:32;;;;;;;15.18;11.00;;;13.60;99.90;;;;;;5056542;28;20221;-85
2022/09/10 03:23:20;;;;;;;16.80;11.52;;;13.60;99.90;;;;;;5061582;28;20216;-88
2022/09/10 03:26:13;;;;;;;14.20;10.35;;;13.60;99.90;;;;;;5058975;28;20223;-86
2022/09/10 03:29:02;;;;;;;12.52;10.00;;;13.60;99.90;;;;;;5060398;28;20231;-87
2022/09/10 03:31:55;;;;;;;10.77;8.80;;;13.50;99.90;;;;;;5054681;28;20605;-87
2022/09/10 03:34:44;;;;;;;13.15;9.40;;;13.60;99.90;;;;;;5053737;28;20692;-86
2022/09/10 03:37:33;;;;;;;15.88;10.00;;;13.70;99.90;;;;;;5082931;28;20223;-86
2022/09/10 03:40:23;;;;;;;13.68;10.40;;;13.60;99.90;;;;;;5085822;28;20236;-87
2022/09/10 03:43:12;;;;;;;14.35;10.23;;;13.60;99.90;;;;;;5057253;28;20303;-86
2022/09/10 03:46:02;;;;;;;12.73;10.02;;;13.40;99.90;;;;;;5083868;28;20594;-87
2022/09/10 03:48:51;;;;;;;11.77;9.52;;;13.30;99.90;;;;;;5060620;28;20224;-86
2022/09/10 03:51:44;;;;;;;13.88;9.57;;;13.30;99.90;;;;;;5057763;28;20213;-86
2022/09/10 03:54:36;;;;;;;11.23;9.80;;;13.40;99.90;;;;;;5057668;28;20235;-87
2022/09/10 03:57:24;;;;;;;13.07;10.43;;;13.60;99.90;;;;;;5058371;28;20224;-87
2022/09/10 04:00:16;;;;;;;12.88;9.88;;;13.60;99.90;;;;;;5064834;28;20228;-86
2022/09/10 04:03:09;;;;;;;11.77;9.75;;;13.50;99.90;;;;;;5061929;28;20302;-87
2022/09/10 04:05:58;;;;;;;12.40;10.45;;;13.50;99.90;;;;;;5077694;28;20694;-88
2022/09/10 04:08:49;;;;;;;11.15;9.60;;;13.50;99.90;;;;;;5064499;28;20539;-87
2022/09/10 04:11:39;;;;;;;10.95;9.63;;;13.50;99.90;;;;;;5087495;28;20224;-87
2022/09/10 04:14:28;;;;;;;15.05;12.55;;;13.50;99.90;;;;;;5066132;28;20231;-87
2022/09/10 04:17:19;;;;;;;12.82;11.38;;;13.50;99.90;;;;;;5089804;28;20234;-86
2022/09/10 04:20:09;;;;;;;14.25;11.30;;;13.50;99.90;;;;;;5066098;28;20220;-86
2022/09/10 04:22:59;;;;;;;12.55;10.65;;;13.60;99.90;;;;;;5087892;28;20216;-87
2022/09/10 04:25:48;;;;;;;11.73;10.23;;;13.60;99.90;;;;;;5067020;28;20220;-87
2022/09/10 04:28:37;;;;;;;13.88;11.38;;;13.70;99.90;;;;;;5048771;28;20229;-86
2022/09/10 04:31:25;;;;;;;12.30;11.00;;;13.60;99.90;;;;;;5074304;28;20216;-86
2022/09/10 04:34:20;;;;;;;13.25;11.52;;;13.50;99.90;;;;;;5085635;28;20623;-87
2022/09/10 04:37:08;;;;;;;13.20;11.80;;;13.40;99.90;;;;;;5071397;28;21071;-86
2022/09/10 04:39:57;;;;;;;13.35;11.95;;;13.50;99.90;;;;;;5067960;28;20591;-87
2022/09/10 04:42:46;;;;;;;14.45;12.85;;;13.50;99.90;;;;;;5070571;28;20237;-87
2022/09/10 04:45:35;;;;;;;13.43;12.02;;;13.60;99.90;;;;;;5059709;28;21019;-86
2022/09/10 04:48:24;;;;;;;13.88;11.65;;;13.60;99.90;;;;;;5086317;28;20721;-86
2022/09/10 04:51:16;;;;;;;14.15;12.65;;;13.60;99.90;;;;;;5062363;28;20722;-86
2022/09/10 04:54:13;;;;;;;14.77;13.15;;;13.50;99.90;;;;;;5060222;28;20223;-86
2022/09/10 04:57:04;;;;;;;14.57;13.05;;;13.60;99.90;;;;;;5086942;28;20582;-86
2022/09/10 04:59:54;;;;;;;16.70;13.40;;;13.60;99.90;;;;;;5079820;28;20302;-87
2022/09/10 05:02:43;;;;;;;16.45;12.80;;;13.70;99.90;;;;;;5066085;28;20228;-89
2022/09/10 05:05:33;;;;;;;14.63;12.95;;;13.50;99.90;;;;;;5059519;28;20224;-90
2022/09/10 05:08:24;;;;;;;17.25;12.48;;;13.40;99.90;;;;;;5059697;28;20216;-87
2022/09/10 05:11:18;;;;;;;14.02;12.43;;;13.50;99.90;;;;;;5074142;28;20303;-87
2022/09/10 05:14:07;;;;;;;12.60;11.38;;;13.60;99.90;;;;;;5088907;28;20242;-87
2022/09/10 05:16:56;;;;;;;15.23;12.30;;;13.60;99.90;;;;;;5061865;28;20893;-86
2022/09/10 05:19:47;;;;;;;10.85;9.75;;;13.40;99.90;;;;;;5070807;28;20238;-88
2022/09/10 05:22:36;;;;;;;11.73;10.38;;;13.50;99.90;;;;;;5058429;28;20231;-86
2022/09/10 05:25:30;;;;;;;14.73;11.13;;;13.50;99.90;;;;;;5063170;28;20216;-86
2022/09/10 05:28:21;;;;;;;12.88;9.88;;;13.60;99.90;;;;;;5071323;28;20240;-86
2022/09/10 05:31:09;;;;;;;14.77;10.93;;;13.70;99.90;;;;;;5088935;28;20224;-88
2022/09/10 05:34:00;;;;;;;12.80;9.90;;;13.60;99.90;;;;;;5089503;28;20216;-86
2022/09/10 05:36:50;;;;;;;14.25;10.70;;;13.50;99.90;;;;;;5059317;28;20625;-87
2022/09/10 05:39:39;;;;;;;15.65;10.90;;;13.60;99.90;;;;;;5074280;28;20212;-87
2022/09/10 05:42:29;;;;;;;11.60;9.40;;;13.50;99.90;;;;;;5087647;28;20219;-86
2022/09/10 05:45:19;;;;;;;13.25;10.05;;;13.60;99.90;;;;;;5096325;27;20223;-87
2022/09/10 05:48:08;;;;;;;12.57;9.88;;;13.60;99.90;;;;;;5060503;28;20224;-86
2022/09/10 05:50:57;;;;;;;14.05;10.80;;;13.60;99.90;;;;;;5072918;28;20231;-86
2022/09/10 05:53:45;;;;;;;11.70;9.60;;;13.60;99.90;;;;;;5079237;28;20248;-85
2022/09/10 05:56:34;;;;;;;12.30;10.05;;;13.60;99.90;;;;;;5087373;27;20327;-85
2022/09/10 05:59:24;;;;;;;12.75;9.82;;;13.70;99.90;;;;;;5072262;28;20220;-85
2022/09/10 06:02:16;;;;;;;12.07;9.40;;;13.70;99.90;;;;;;5058184;28;20224;-85
2022/09/10 06:05:11;;;;;;;13.27;9.77;;;13.80;99.90;;;;;;5064850;28;20225;-90
2022/09/10 06:08:01;;;;;;;14.40;9.73;;;13.80;99.90;;;;;;5089604;28;20492;-88
2022/09/10 06:10:59;;;;;;;13.45;10.57;;;13.70;99.90;;;;;;5064340;28;20224;-85
2022/09/10 06:13:52;;;;;;;14.88;10.68;;;13.70;99.90;;;;;;5079941;27;20712;-85
2022/09/10 06:16:42;;;;;;;14.25;11.10;;;13.60;99.90;;;;;;5085043;28;20322;-85
2022/09/10 06:19:31;;;;;;;13.02;9.90;;;13.60;99.90;;;;;;5069362;28;20221;-85
2022/09/10 06:22:20;;;;;;;14.10;10.00;;;13.70;99.90;;;;;;5058765;28;20232;-86
2022/09/10 06:25:11;;;;;;;15.05;11.35;;;13.70;99.90;;;;;;5057570;28;20217;-85
2022/09/10 06:28:01;;;;;;;14.88;10.40;;;13.80;99.90;;;;;;5055655;28;20221;-84
2022/09/10 06:30:49;;;;;;;14.25;10.27;;;13.90;99.90;;;;;;5057308;28;20231;-85
2022/09/10 06:33:39;;;;;;;12.63;9.80;;;13.80;99.90;;;;;;5054303;28;20231;-84
2022/09/10 06:36:28;;;;;;;17.58;9.93;;;13.90;99.90;;;;;;5079697;27;20237;-85
2022/09/10 06:39:17;;;;;;;16.42;11.40;;;13.80;99.90;;;;;;5056503;28;20229;-85
2022/09/10 06:42:10;;;;;;;12.70;9.45;;;13.80;99.90;;;;;;5052833;28;21545;-85
2022/09/10 06:45:17;;;;;;;12.82;8.85;;;13.50;99.90;;;;;;5056928;28;20303;-86
2022/09/10 06:48:10;;;;;;;11.63;8.95;;;13.60;99.90;;;;;;5052795;28;20798;-85
2022/09/10 06:51:22;;;;;;;12.10;9.45;;;13.60;99.90;;;;;;5082434;28;20304;-87
2022/09/10 06:54:12;;;;;;;13.65;10.10;;;13.80;99.90;;;;;;5082917;28;20286;-85
2022/09/10 06:57:03;;;;;;;15.43;10.73;;;13.60;99.90;;;;;;5049752;28;20216;-89
2022/09/10 06:59:52;;;;;;;15.30;10.90;;;13.60;99.90;;;;;;5087225;28;20242;-87
2022/09/10 07:02:41;;;;;;;15.10;10.15;;;13.70;99.90;;;;;;5055973;28;20727;-88
2022/09/10 07:05:33;;;;;;;14.38;9.70;;;13.70;99.90;;;;;;5057768;28;20286;-88
2022/09/10 07:08:24;;;;;;;13.10;10.30;;;13.80;99.90;;;;;;5059432;28;20229;-91
2022/09/10 07:11:17;;;;;;;12.75;9.23;;;13.90;99.90;;;;;;5058668;28;20243;-88
2022/09/10 07:14:05;;;;;;;13.32;9.52;;;13.80;99.90;;;;;;5068215;28;20227;-87
2022/09/10 07:16:56;;;;;;;12.77;9.40;;;13.90;99.90;;;;;;5092965;28;20576;-89
2022/09/10 07:19:47;;;;;;;13.45;9.40;;;14.00;99.90;;;;;;5074135;28;20221;-90
2022/09/10 07:22:44;;;;;;;13.88;10.48;;;14.00;99.90;;;;;;5076206;28;20698;-90
2022/09/10 07:25:35;;;;;;;12.23;9.85;;;13.90;99.90;;;;;;5087532;28;20223;-87
2022/09/10 07:28:27;;;;;;;14.18;10.43;;;13.80;99.90;;;;;;5060436;28;20236;-82
2022/09/10 07:31:19;;;;;;;14.63;10.18;;;13.80;99.90;;;;;;5054556;28;20262;-82
2022/09/10 07:34:08;;;;;;;12.50;9.90;;;13.80;99.90;;;;;;5051365;28;20216;-82
2022/09/10 07:36:57;;;;;;;12.57;9.00;;;13.90;99.90;;;;;;5069885;28;20232;-86
2022/09/10 07:39:46;;;;;;;10.70;8.73;;;14.00;99.90;;;;;;5057642;28;20220;-86
2022/09/10 07:42:37;;;;;;;11.55;8.85;;;13.90;99.90;;;;;;5069154;28;20274;-86
2022/09/10 07:45:27;;;;;;;11.00;9.07;;;13.90;99.90;;;;;;5068656;28;20216;-85
2022/09/10 07:48:16;;;;;;;11.70;9.38;;;13.80;99.90;;;;;;5054616;28;20224;-86
2022/09/10 07:51:09;;;;;;;11.77;9.40;;;13.90;99.90;;;;;;5057940;28;20285;-86
2022/09/10 07:53:59;;;;;;;11.15;9.75;;;13.90;99.90;;;;;;5058125;28;20806;-86
2022/09/10 07:56:56;;;;;;;11.45;9.40;;;13.90;99.90;;;;;;5054192;28;20245;-84
2022/09/10 07:59:46;;;;;;;13.32;9.85;;;13.90;99.90;;;;;;5065884;28;20224;-85
2022/09/10 08:02:39;;;;;;;13.10;10.23;;;13.90;99.90;;;;;;5067348;28;20224;-84
2022/09/10 08:05:28;;;;;;;13.50;10.57;;;13.90;99.90;;;;;;5072304;28;20679;-86
2022/09/10 08:08:18;;;;;;;18.02;11.00;;;13.90;99.90;;;;;;5064351;28;20224;-86
2022/09/10 08:11:10;;;;;;;14.00;10.35;;;14.00;99.90;;;;;;5047523;28;20228;-86
2022/09/10 08:14:01;;;;;;;13.38;10.27;;;14.00;99.90;;;;;;5079730;28;20229;-85
2022/09/10 08:16:51;;;;;;;12.45;10.35;;;14.00;99.90;;;;;;5063048;28;20231;-86
2022/09/10 08:19:41;;;;;;;12.45;10.10;;;14.00;99.90;;;;;;5057090;28;20665;-85
2022/09/10 08:22:31;;;;;;;11.23;9.90;;;14.10;99.90;;;;;;5084840;28;20760;-85
2022/09/10 08:25:20;;;;;;;12.63;10.18;;;14.20;99.90;;;;;;5059568;28;20715;-85
2022/09/10 08:28:09;;;;;;;12.60;9.77;;;14.30;99.90;;;;;;5061938;28;20786;-84
2022/09/10 08:31:02;;;;;;;13.10;9.75;;;14.30;99.90;;;;;;5068661;28;20697;-85
2022/09/10 08:33:56;;;;;;;15.88;10.30;;;14.30;99.90;;;;;;5070345;28;20347;-85
2022/09/10 08:36:46;;;;;;;12.68;9.43;;;14.30;99.90;;;;;;5055793;28;20299;-86
2022/09/10 08:39:34;;;;;;;12.95;10.10;;;14.30;99.90;;;;;;5057774;28;20556;-86
2022/09/10 08:42:32;;;;;;;13.68;10.75;;;14.20;99.90;;;;;;5072344;28;20228;-85
2022/09/10 08:45:24;;;;;;;13.82;10.40;;;14.30;99.90;;;;;;5057763;28;20254;-85
2022/09/10 08:48:19;;;;;;;13.30;9.55;;;14.40;99.90;;;;;;5082182;28;20239;-85
2022/09/10 08:51:14;;;;;;;11.45;9.38;;;14.30;99.90;;;;;;5072318;28;20231;-85
2022/09/10 08:54:11;;;;;;;13.02;10.23;;;14.30;99.90;;;;;;5058341;28;20220;-84
2022/09/10 08:57:02;;;;;;;11.77;9.93;;;14.40;99.90;;;;;;5056666;28;20699;-78
2022/09/10 08:59:53;;;;;;;11.75;10.10;;;14.40;99.90;;;;;;5070151;28;20220;-79
2022/09/10 09:02:50;;;;;;;12.55;10.52;;;14.50;99.90;;;;;;5079134;28;20224;-78
2022/09/10 09:05:46;;;;;;;13.93;10.55;;;14.50;99.90;;;;;;5086228;28;20303;-78
2022/09/10 09:08:43;;;;;;;14.25;11.05;;;14.50;99.90;;;;;;5057057;28;20248;-78
2022/09/10 09:11:40;;;;;;;14.65;11.00;;;14.40;99.90;;;;;;5059673;28;20714;-84
2022/09/10 09:14:47;;;;;;;14.05;10.32;;;14.50;99.90;;;;;;5059980;28;20216;-86
2022/09/10 09:17:51;;;;;;;14.93;11.10;;;14.50;99.90;;;;;;5072357;28;20362;-84
2022/09/10 09:20:45;;;;;;;12.70;10.10;;;14.50;99.90;;;;;;5063127;28;20224;-84
2022/09/10 09:23:49;;;;;;;12.77;10.60;;;14.50;99.90;;;;;;5068143;28;20642;-84
2022/09/10 09:27:08;;;;;;;14.00;10.73;;;14.50;99.90;;;;;;5064556;28;20249;-84
2022/09/10 09:30:03;;;;;;;13.75;11.18;;;14.40;99.90;;;;;;5058351;28;20264;-84
2022/09/10 09:33:02;;;;;;;14.40;11.50;;;14.50;99.90;;;;;;5081717;28;20220;-84
2022/09/10 09:35:54;;;;;;;13.05;11.65;;;14.60;99.90;;;;;;5052357;28;20225;-84
2022/09/10 09:38:47;;;;;;;15.90;11.23;;;14.60;99.90;;;;;;5082360;28;20220;-84
2022/09/10 09:41:51;;;;;;;16.98;13.30;;;14.50;99.90;;;;;;5068178;28;20276;-83
2022/09/10 09:44:48;;;;;;;15.63;12.75;;;14.50;99.90;;;;;;5059078;28;20224;-85
2022/09/10 09:47:45;;;;;;;13.93;12.38;;;14.50;99.90;;;;;;5066513;28;20730;-86
2022/09/10 09:50:38;;;;;;;17.55;13.27;;;14.50;99.90;;;;;;5055871;28;20291;-86
2022/09/10 09:53:29;;;;;;;17.95;15.10;;;14.50;99.90;;;;;;5060810;28;20232;-86
2022/09/10 09:56:24;;;;;;;16.17;13.98;;;14.50;99.90;;;;;;5070705;28;20223;-85
2022/09/10 09:59:25;;;;;;;17.00;14.60;;;14.60;99.90;;;;;;5075832;28;20224;-86
2022/09/10 10:02:17;;;;;;;16.67;14.35;;;14.60;99.90;;;;;;5057240;28;20231;-86
2022/09/10 10:05:16;;;;;;;16.45;14.60;;;14.70;99.90;;;;;;5056309;28;20220;-85
2022/09/10 10:08:05;;;;;;;17.25;14.93;;;14.70;99.90;;;;;;5051645;28;20220;-85
2022/09/10 10:10:53;;;;;;;19.50;14.68;;;14.60;99.90;;;;;;5058816;28;20297;-85
2022/09/10 10:13:44;;;;;;;18.35;14.45;;;14.80;99.90;;;;;;5075610;28;20246;-85
2022/09/10 10:16:35;;;;;;;16.65;14.27;;;14.80;99.90;;;;;;5058857;28;20243;-85
2022/09/10 10:19:36;;;;;;;16.55;14.27;;;14.70;99.90;;;;;;5066940;28;20216;-85
2022/09/10 10:22:26;;;;;;;19.75;14.35;;;14.80;99.90;;;;;;5058253;28;20248;-85
2022/09/10 10:25:40;;;;;;;16.55;14.80;;;14.60;99.90;;;;;;5061542;28;20224;-85
2022/09/10 10:28:29;;;;;;;17.17;14.30;;;14.80;99.90;;;;;;5060421;28;20234;-84
2022/09/10 10:31:19;;;;;;;15.10;13.50;;;14.80;99.90;;;;;;5055503;28;20228;-84
2022/09/10 10:34:44;;;;;;;17.27;14.38;;;14.80;99.90;;;;;;5056647;28;20216;-84
2022/09/10 10:37:40;;;;;;;20.38;15.88;;;14.80;99.90;;;;;;5053674;28;20242;-79
2022/09/10 10:40:33;;;;;;;18.75;16.75;;;14.80;99.90;;;;;;5053018;28;20642;-80
2022/09/10 10:43:33;;;;;;;20.33;17.48;;;14.70;99.90;;;;;;5070332;28;20216;-88
2022/09/10 10:46:29;;;;;;;21.35;17.90;;;14.80;99.90;;;;;;5096580;28;20223;-90
2022/09/10 10:49:25;;;;;;;20.60;16.42;;;14.80;99.90;;;;;;5063434;28;20224;-91
2022/09/10 10:52:24;;;;;;;20.90;16.88;;;14.70;99.90;;;;;;5061757;28;20526;-90
2022/09/10 10:55:22;;;;;;;21.67;17.27;;;14.80;99.90;;;;;;5055682;28;20297;-90
2022/09/10 10:58:22;;;;;;;23.75;19.85;;;14.70;99.90;;;;;;5096026;28;20298;-90
2022/09/10 11:01:19;;;;;;;26.98;20.42;;;14.80;99.90;;;;;;5080731;28;20299;-89
2022/09/10 11:04:23;;;;;;;24.27;19.40;;;14.70;99.90;;;;;;5064415;28;20216;-76
2022/09/10 11:07:19;;;;;;;24.67;19.35;;;14.80;99.90;;;;;;5081558;27;20591;-77
2022/09/10 11:10:18;;;;;;;19.70;15.95;;;14.70;99.90;;;;;;5053922;28;20647;-77
2022/09/10 11:13:12;;;;;;;18.15;15.15;;;14.70;99.90;;;;;;5073745;28;20281;-77
2022/09/10 11:16:05;;;;;;;21.25;14.57;;;14.80;99.90;;;;;;5052222;28;20224;-77
2022/09/10 11:18:56;;;;;;;17.23;14.05;;;14.60;99.90;;;;;;5053707;28;20231;-77
2022/09/10 11:21:51;;;;;;;16.00;13.25;;;14.50;99.90;;;;;;5053392;28;20355;-77
2022/09/10 11:24:44;;;;;;;17.08;12.75;;;14.60;99.90;;;;;;5050700;28;20307;-78
2022/09/10 11:27:37;;;;;;;17.20;14.15;;;14.60;99.90;;;;;;5054452;28;20254;-78
2022/09/10 11:30:26;;;;;;;17.42;14.55;;;14.60;99.90;;;;;;5058500;28;20343;-79
2022/09/10 11:33:22;;;;;;;18.52;13.65;;;14.70;99.90;;;;;;5061796;28;20236;-78
2022/09/10 11:36:18;;;;;;;18.75;15.75;;;14.70;99.90;;;;;;5052751;28;20223;-77
2022/09/10 11:39:19;;;;;;;19.23;15.00;;;14.60;99.90;;;;;;5050703;28;20244;-77
2022/09/10 11:42:15;;;;;;;16.83;14.77;;;14.70;99.90;;;;;;5050955;28;20335;-77
2022/09/10 11:45:17;;;;;;;15.38;13.75;;;14.70;99.90;;;;;;5054565;28;20856;-78
2022/09/10 11:48:17;;;;;;;20.05;13.35;;;14.50;99.90;;;;;;5062023;28;20678;-92
2022/09/10 11:51:11;;;;;;;14.80;13.20;;;14.70;99.90;;;;;;5082546;28;20228;-94
2022/09/10 11:54:02;;;;;;;16.85;12.63;;;14.70;99.90;;;;;;5058643;28;20240;-85
2022/09/10 11:56:59;;;;;;;14.88;12.20;;;14.80;99.90;;;;;;5060486;28;20322;-87
2022/09/10 12:00:06;;;;;;;14.20;11.85;;;14.90;99.90;;;;;;5069342;28;20200;-90
2022/09/10 12:03:33;;;;;;;13.73;11.35;;;14.80;99.90;;;;;;5096622;28;20256;-91
2022/09/10 12:06:27;;;;;;;13.35;10.75;;;14.90;99.90;;;;;;5057215;28;20221;-91
2022/09/10 12:09:23;;;;;;;13.05;10.13;;;14.80;99.90;;;;;;5089871;28;20227;-89
2022/09/10 12:12:21;;;;;;;11.52;9.65;;;14.60;99.90;;;;;;5057907;28;20228;-88
2022/09/10 12:15:17;;;;;;;11.43;10.23;;;14.50;99.90;;;;;;5058236;28;20354;-87
2022/09/10 12:18:14;;;;;;;13.57;10.38;;;14.50;99.90;;;;;;5057910;28;20697;-87
2022/09/10 12:21:07;;;;;;;10.85;9.52;;;14.60;99.90;;;;;;5060150;28;20223;-88
2022/09/10 12:23:57;;;;;;;12.82;10.20;;;14.50;99.90;;;;;;5062778;28;20302;-87
2022/09/10 12:26:45;;;;;;;13.05;10.38;;;14.50;99.90;;;;;;5053031;28;20263;-87
2022/09/10 12:29:37;;;;;;;13.60;10.52;;;14.50;99.90;;;;;;5068948;28;20720;-88
2022/09/10 12:32:31;;;;;;;11.00;9.45;;;14.60;99.90;;;;;;5072754;28;20722;-88
2022/09/10 12:35:47;;;;;;;12.25;9.27;;;14.60;99.90;;;;;;5102989;28;20228;-88
2022/09/10 12:39:16;;;;;;;10.43;9.35;;;14.60;99.90;;;;;;5062487;28;20224;-89
2022/09/10 12:42:29;;;;;;;9.75;8.75;;;14.70;99.90;;;;;;5072446;28;20220;-88
2022/09/10 12:46:04;;;;;;;10.50;8.70;;;14.70;99.90;;;;;;5052377;28;20225;-87
2022/09/10 12:49:10;;;;;;;11.82;8.95;;;14.60;99.90;;;;;;5058311;28;20361;-88
2022/09/10 12:51:59;;;;;;;9.93;8.68;;;14.70;99.90;;;;;;5090450;28;20234;-89
2022/09/10 12:55:05;;;;;;;10.38;8.93;;;14.70;99.90;;;;;;5068254;28;20228;-88
2022/09/10 12:58:11;;;;;;;10.25;9.13;;;14.70;99.90;;;;;;5082372;28;20228;-89
2022/09/10 13:01:15;;;;;;;12.80;9.77;;;14.70;99.90;;;;;;5061542;28;20338;-89
2022/09/10 13:04:04;;;;;;;11.65;9.75;;;14.60;99.90;;;;;;5064751;28;20239;-89
2022/09/10 13:07:02;;;;;;;11.18;9.90;;;14.70;99.90;;;;;;5065012;28;20272;-89
2022/09/10 13:10:00;;;;;;;13.85;12.35;;;14.70;99.90;;;;;;5090309;28;20223;-90
2022/09/10 13:12:57;;;;;;;12.85;11.43;;;14.70;99.90;;;;;;5071791;28;20216;-88
2022/09/10 13:15:51;;;;;;;13.10;11.77;;;14.80;99.90;;;;;;5080193;28;20302;-88
2022/09/10 13:18:49;;;;;;;11.57;10.15;;;14.80;99.90;;;;;;5072786;28;20224;-89
2022/09/10 13:21:58;;;;;;;12.23;9.77;;;14.80;99.90;;;;;;5088881;28;20215;-90
2022/09/10 13:25:02;;;;;;;10.13;9.13;;;14.80;99.90;;;;;;5069074;28;20220;-89
2022/09/10 13:27:51;;;;;;;10.75;9.60;;;14.80;99.90;;;;;;5057629;28;20240;-90
2022/09/10 13:30:42;;;;;;;10.00;8.85;;;14.80;99.90;;;;;;5069690;28;20224;-88
2022/09/10 13:33:36;;;;;;;12.00;9.75;;;14.70;99.90;;;;;;5059346;28;20224;-88
2022/09/10 13:36:34;;;;;;;10.50;9.50;;;14.60;99.90;;;;;;5092587;28;20345;-92
2022/09/10 13:39:44;;;;;;;11.98;10.13;;;14.60;99.90;;;;;;5063040;28;20303;-90
2022/09/10 13:42:55;;;;;;;13.13;9.57;;;14.50;99.90;;;;;;5064740;28;20679;-91
2022/09/10 13:45:50;;;;;;;11.90;10.43;;;14.60;99.90;;;;;;5091739;28;20686;-91
2022/09/10 13:48:46;;;;;;;11.68;10.48;;;14.50;99.90;;;;;;5069536;28;20227;-91
2022/09/10 13:51:45;;;;;;;11.80;10.32;;;14.60;99.90;;;;;;5081867;28;20258;-89
2022/09/10 13:54:36;;;;;;;11.30;9.82;;;14.70;99.90;;;;;;5091169;28;20291;-90
2022/09/10 13:57:29;;;;;;;12.52;11.15;;;14.60;99.90;;;;;;5092097;28;20224;-89
2022/09/10 14:00:23;;;;;;;11.95;10.18;;;14.70;99.90;;;;;;5067288;28;20216;-91
2022/09/10 14:03:19;;;;;;;11.80;9.45;;;14.70;99.90;;;;;;5073552;28;20236;-90
2022/09/10 14:06:09;;;;;;;11.05;9.65;;;14.70;99.90;;;;;;5064299;28;20213;-92
2022/09/10 14:09:06;;;;;;;12.80;10.48;;;14.70;99.90;;;;;;5068687;28;20220;-92
2022/09/10 14:11:57;;;;;;;13.65;10.93;;;14.70;99.90;;;;;;5067233;28;20235;-91
2022/09/10 14:14:49;;;;;;;11.45;10.25;;;14.70;99.90;;;;;;5063467;28;20269;-91
2022/09/10 14:17:43;;;;;;;12.05;10.25;;;14.70;99.90;;;;;;5090917;28;20307;-93
2022/09/10 14:20:34;;;;;;;12.07;10.25;;;14.80;99.90;;;;;;5083942;28;20238;-92
2022/09/10 14:23:23;;;;;;;13.07;10.27;;;14.80;99.90;;;;;;5074626;28;20213;-91
2022/09/10 14:26:22;;;;;;;11.55;10.07;;;14.80;99.90;;;;;;5085212;28;20220;-91
2022/09/10 14:29:24;;;;;;;11.43;9.73;;;14.80;99.90;;;;;;5059201;28;20224;-90
2022/09/10 14:32:28;;;;;;;10.63;9.52;;;14.70;99.90;;;;;;5058572;28;20695;-89
2022/09/10 14:35:38;;;;;;;11.23;9.73;;;14.70;99.90;;;;;;5079604;28;20891;-90
2022/09/10 14:38:29;;;;;;;10.75;9.65;;;14.70;99.90;;;;;;5064549;28;20224;-89
2022/09/10 14:41:21;;;;;;;12.02;9.48;;;14.80;99.90;;;;;;5059867;28;20696;-89
2022/09/10 14:44:15;;;;;;;12.35;10.70;;;14.90;99.90;;;;;;5075028;28;20334;-92
2022/09/10 14:47:14;;;;;;;12.25;10.25;;;14.80;99.90;;;;;;5066933;28;20215;-90